createdAt,value
2022-09-06T01:44:26.768Z,19.87
2022-09-06T01:47:01.882Z,19.84
2022-09-06T01:49:44.898Z,19.84
2022-09-06T01:52:21.576Z,19.82
2022-09-06T01:55:07.160Z,19.81
2022-09-06T04:12:40.698Z,19.48
2022-09-06T08:22:26.722Z,20.64
2022-09-06T08:24:56.283Z,20.70
2022-09-06T08:27:41.718Z,20.77
2022-09-06T08:30:26.799Z,20.81
2022-09-06T08:33:01.918Z,20.86
2022-09-06T08:35:38.041Z,20.92
2022-09-06T08:38:15.137Z,21.04
2022-09-06T08:40:46.061Z,21.17
2022-09-06T09:53:11.149Z,30.50
2022-09-06T09:55:39.958Z,30.93
2022-09-06T09:58:17.742Z,31.37
2022-09-06T10:00:45.454Z,31.34
2022-09-06T10:03:14.797Z,31.16
2022-09-06T10:06:02.054Z,31.10
2022-09-06T10:08:34.914Z,30.99
2022-09-06T10:11:02.616Z,30.88
2022-09-06T10:13:31.297Z,30.55
2022-09-06T10:16:03.113Z,30.19
2022-09-06T10:18:33.013Z,29.86
2022-09-06T10:21:02.885Z,29.66
2022-09-06T10:26:33.567Z,29.50
2022-09-06T10:29:06.865Z,29.69
2022-09-06T10:31:50.072Z,30.14
2022-09-06T10:34:59.904Z,30.44
2022-09-06T10:37:42.626Z,30.38
2022-09-06T10:40:13.285Z,30.27
2022-09-06T10:42:46.699Z,30.23
2022-09-06T10:45:28.328Z,30.30
2022-09-06T11:39:13.883Z,30.77
2022-09-06T11:41:49.599Z,30.74
2022-09-06T11:47:09.321Z,30.66
2022-09-06T11:49:41.317Z,30.53
2022-09-06T11:52:46.233Z,30.38
2022-09-06T12:02:23.994Z,30.11
2022-09-06T12:05:35.534Z,29.97
2022-09-06T12:11:59.031Z,29.78
2022-09-06T12:15:03.002Z,29.77
2022-09-06T12:17:54.311Z,29.77
2022-09-06T12:21:26.299Z,29.78
2022-09-06T13:02:13.721Z,29.21
2022-09-06T13:04:45.416Z,29.16
2022-09-06T13:10:50.796Z,29.09
2022-09-06T13:16:07.652Z,29.06
2022-09-06T13:18:39.637Z,29.03
2022-09-06T13:21:08.617Z,29.05
2022-09-06T13:49:59.059Z,28.69
2022-09-06T13:52:28.175Z,28.64
2022-09-06T13:57:40.836Z,28.57
2022-09-06T14:00:12.825Z,28.51
2022-09-06T14:03:10.664Z,28.48
2022-09-06T14:05:40.005Z,28.43
2022-09-06T14:08:21.180Z,28.38
2022-09-06T14:10:49.799Z,28.33
2022-09-06T14:13:18.540Z,28.31
2022-09-06T14:15:47.365Z,28.26
2022-09-06T14:18:16.357Z,28.22
2022-09-06T14:20:53.363Z,28.19
2022-09-06T14:23:23.723Z,28.16
2022-09-06T14:25:57.264Z,28.14
2022-09-06T14:28:25.990Z,28.14
2022-09-06T14:30:54.305Z,28.12
2022-09-06T14:33:23.403Z,28.11
2022-09-06T14:35:52.669Z,28.10
2022-09-06T14:38:22.268Z,28.10
2022-09-06T14:40:50.553Z,28.07
2022-09-06T14:45:57.496Z,28.03
2022-09-06T15:37:55.256Z,27.50
2022-09-06T15:40:27.060Z,27.47
2022-09-06T15:42:55.031Z,27.44
2022-09-06T15:48:04.614Z,27.39
2022-09-06T15:50:50.315Z,27.36
2022-09-06T15:53:20.511Z,27.32
2022-09-06T15:55:56.154Z,27.27
2022-09-06T15:58:23.956Z,27.22
2022-09-06T16:01:02.184Z,27.19
2022-09-06T16:03:29.852Z,27.15
2022-09-06T16:08:56.298Z,27.10
2022-09-06T16:11:23.794Z,27.08
2022-09-06T16:13:51.598Z,27.06
2022-09-06T16:16:19.998Z,27.05
2022-09-06T16:18:48.029Z,27.04
2022-09-06T16:21:17.951Z,27.03
2022-09-06T16:23:50.350Z,27.02
2022-09-06T16:26:21.677Z,27.00
2022-09-06T16:28:50.755Z,26.95
2022-09-06T16:31:19.392Z,26.90
2022-09-06T16:33:48.737Z,26.85
2022-09-06T16:36:16.929Z,26.82
2022-09-06T16:38:44.807Z,26.79
2022-09-06T16:41:15.499Z,26.75
2022-09-06T16:43:44.726Z,26.71
2022-09-06T16:46:13.355Z,26.69
2022-09-06T16:48:41.556Z,26.63
2022-09-06T16:51:11.047Z,26.60
2022-09-06T16:53:41.065Z,26.56
2022-09-06T16:56:09.367Z,26.54
2022-09-06T16:58:36.889Z,26.50
2022-09-06T17:01:07.273Z,26.45
2022-09-06T17:03:36.187Z,26.40
2022-09-06T17:06:04.455Z,26.35
2022-09-06T17:08:32.867Z,26.28
2022-09-06T17:11:02.143Z,26.22
2022-09-06T17:13:30.554Z,26.18
2022-09-06T17:16:19.988Z,26.13
2022-09-06T17:18:53.687Z,26.08
2022-09-06T17:21:22.311Z,26.01
2022-09-06T17:23:50.467Z,25.94
2022-09-06T17:26:19.576Z,25.87
2022-09-06T17:28:47.094Z,25.79
2022-09-06T17:31:15.720Z,25.73
2022-09-06T17:33:43.292Z,25.67
2022-09-06T17:36:14.486Z,25.60
2022-09-06T17:38:43.131Z,25.54
2022-09-06T17:41:19.968Z,25.45
2022-09-06T17:43:48.596Z,25.37
2022-09-06T17:46:16.148Z,25.27
2022-09-06T17:48:44.070Z,25.19
2022-09-06T17:51:12.996Z,25.13
2022-09-06T17:53:41.113Z,25.05
2022-09-06T17:56:10.391Z,24.97
2022-09-06T17:58:38.962Z,24.91
2022-09-06T18:20:18.186Z,24.24
2022-09-06T18:22:45.739Z,24.19
2022-09-06T18:25:13.893Z,24.14
2022-09-06T20:14:21.266Z,23.30
2022-09-06T20:16:51.800Z,23.28
2022-09-06T20:19:19.884Z,23.27
2022-09-06T20:21:47.443Z,23.27
2022-09-06T20:24:15.045Z,23.24
2022-09-06T20:54:27.168Z,23.00
2022-09-06T20:57:03.440Z,22.96
2022-09-06T20:59:45.688Z,22.96
2022-09-06T21:02:16.260Z,22.96
2022-09-06T21:04:49.545Z,22.94
2022-09-06T21:07:17.705Z,22.92
2022-09-06T21:09:47.130Z,22.87
2022-09-06T21:12:15.203Z,22.80
2022-09-06T21:14:43.621Z,22.76
2022-09-06T21:17:11.593Z,22.71
2022-09-06T21:19:40.327Z,22.66
2022-09-06T21:22:10.683Z,22.62
2022-09-06T21:24:38.822Z,22.61
2022-09-06T21:27:12.227Z,22.61
2022-09-06T21:29:40.146Z,22.59
2022-09-06T21:32:08.017Z,22.54
2022-09-06T21:34:36.239Z,22.50
2022-09-06T21:37:04.163Z,22.44
2022-09-06T21:39:34.226Z,22.42
2022-09-06T21:42:02.011Z,22.41
2022-09-06T21:44:31.373Z,22.44
2022-09-06T21:47:01.385Z,22.45
2022-09-06T21:49:29.190Z,22.48
2022-09-06T21:51:57.492Z,22.46
2022-09-06T21:54:25.444Z,22.45
2022-09-06T21:56:53.598Z,22.41
2022-09-06T21:59:21.886Z,22.39
2022-09-06T22:01:53.138Z,22.41
2022-09-06T22:04:21.547Z,22.40
2022-09-06T22:06:49.660Z,22.36
2022-09-06T22:09:17.429Z,22.31
2022-09-06T22:11:46.053Z,22.28
2022-09-06T22:14:15.897Z,22.26
2022-09-06T22:16:44.125Z,22.24
2022-09-06T22:19:13.608Z,22.26
2022-09-06T22:21:41.507Z,22.26
2022-09-06T22:24:14.402Z,22.26
2022-09-06T22:26:42.705Z,22.27
2022-09-06T22:29:13.725Z,22.28
2022-09-06T22:31:42.111Z,22.25
2022-09-06T22:34:11.172Z,22.23
2022-09-06T22:36:40.991Z,22.24
2022-09-06T22:39:09.777Z,22.25
2022-09-06T22:41:38.121Z,22.27
2022-09-06T22:44:07.412Z,22.29
2022-09-06T22:46:35.863Z,22.30
2022-09-06T22:49:05.590Z,22.31
2022-09-06T22:51:33.847Z,22.30
2022-09-06T22:54:03.424Z,22.23
2022-09-06T22:56:31.626Z,22.18
2022-09-06T22:59:00.364Z,22.20
2022-09-06T23:01:28.649Z,22.19
2022-09-06T23:03:57.980Z,22.20
2022-09-06T23:06:26.280Z,22.18
2022-09-06T23:08:54.389Z,22.16
2022-09-06T23:11:24.059Z,22.14
2022-09-06T23:13:56.971Z,22.13
2022-09-06T23:16:26.199Z,22.14
2022-09-06T23:18:54.730Z,22.15
2022-09-06T23:21:24.475Z,22.13
2022-09-06T23:23:56.385Z,22.10
2022-09-06T23:26:28.910Z,22.04
2022-09-06T23:28:57.462Z,21.99
2022-09-06T23:31:28.023Z,21.93
2022-09-06T23:33:57.274Z,21.90
2022-09-06T23:36:25.679Z,21.88
2022-09-06T23:38:53.564Z,21.91
2022-09-06T23:41:21.753Z,21.92
2022-09-06T23:43:51.404Z,21.91
2022-09-06T23:46:19.435Z,21.92
2022-09-06T23:48:47.558Z,21.89
2022-09-06T23:51:15.520Z,21.81
2022-09-06T23:53:43.529Z,21.75
2022-09-06T23:56:11.410Z,21.73
2022-09-06T23:58:39.764Z,21.70
